Maria Noelle — WDD9564 — position and weather

sailwx.info

Track history (hours):
 
Tides and Currents Weather Stations Pressure Air Temp Water Temp Dewpoint Dewpoint Depression Visibility Wind Speed Wind Dir Waves Ship Positions

Maria Noelle

Owner: MUROS INC, POINT PLEASANT, NJ. More information available from US FCC via Universal Licensing System and Coast Guard Vessel Documentation Center.

Last reported at 2014-Nov-16 20:22 UTC. Time now 2014-Nov-23 18:51 UTC.
Position N 40°03' W 073°33'.

Length 26 m.

Type: Fishing. MMSI: 367313170.

Date/timePositionNaut miles runAvg speedWind from/ knotsBaromVisibWave heightAir tempDewpointWater temp
2014-Nov-16 20:22N 40°03' W 073°33'24 5.7
2014-Nov-16 16:06N 40°00' W 073°02'4 2.5
2014-Nov-16 14:32N 40°00' W 073°07'3 3.2
2014-Nov-16 13:33N 40°00' W 073°03'0 0.0
2014-Nov-16 12:16N 40°00' W 073°03'2 3.3
2014-Nov-16 11:33N 39°60' W 072°60'  
2014-Nov-12 11:31N 40°06' W 074°02'4 4.4
2014-Nov-12 10:33N 40°06' W 073°57'19 1.1
2014-Nov-11 16:33N 40°10' W 073°32'8 7.9
2014-Nov-11 15:33N 40°09' W 073°42'8 8.0
2014-Nov-11 14:33N 40°07' W 073°52'8 7.5
2014-Nov-11 13:32N 40°06' W 074°02'0 0.0
2014-Nov-11 09:04N 40°06' W 074°02'0 0.0
2014-Nov-11 08:31N 40°06' W 074°02'5 5.2
2014-Nov-11 07:33N 40°07' W 073°56'8 8.1
2014-Nov-11 06:33N 40°08' W 073°45'8 8.3
2014-Nov-11 05:33N 40°09' W 073°35'8 8.2
2014-Nov-11 04:33N 40°11' W 073°24'11 0.8
2014-Nov-10 15:33N 40°09' W 073°38'8 8.0
2014-Nov-10 14:33N 40°08' W 073°49'9 8.1
2014-Nov-10 13:29N 40°06' W 073°60'2 0.1
2014-Nov-09 13:28N 40°06' W 074°02'0 0.0
2014-Nov-09 12:31N 40°06' W 074°02'0 0.0
2014-Nov-09 11:22N 40°06' W 074°02'0 0.0
2014-Nov-09 10:25N 40°06' W 074°02'0 0.0
2014-Nov-09 09:28N 40°06' W 074°02'1 0.7
2014-Nov-09 08:33N 40°06' W 074°01'7 7.0
2014-Nov-09 07:31N 40°05' W 073°52'7 7.0
2014-Nov-09 06:33N 40°05' W 073°43'7 7.0
2014-Nov-09 05:33N 40°04' W 073°34'5 5.1
2014-Nov-09 04:33N 40°03' W 073°27'3 2.5
2014-Nov-09 03:22N 40°02' W 073°24'3 2.8
2014-Nov-09 02:25N 40°00' W 073°21'3 2.5
2014-Nov-09 01:21N 39°58' W 073°20'3 2.8
2014-Nov-09 00:26N 39°57' W 073°17'1 1.0
2014-Nov-08 23:15N 39°56' W 073°15'5 2.8
2014-Nov-08 21:27N 39°59' W 073°21'1 1.3
2014-Nov-08 20:30N 40°00' W 073°22'3 2.8
2014-Nov-08 19:26N 39°58' W 073°19'3 2.9
2014-Nov-08 18:33N 39°57' W 073°16'1 0.5
2014-Nov-08 17:29N 39°57' W 073°17'3 2.8
2014-Nov-08 16:29N 39°58' W 073°20'3 2.9
2014-Nov-08 15:31N 40°01' W 073°22'  
Track history (hours):
 
Tides and Currents Weather Stations Pressure Air Temp Water Temp Dewpoint Dewpoint Depression Visibility Wind Speed Wind Dir Waves Ship Positions

Maria Noelle

Owner: MUROS INC, POINT PLEASANT, NJ. More information available from US FCC via Universal Licensing System and Coast Guard Vessel Documentation Center.

Last reported at 2014-Nov-16 20:22 UTC. Time now 2014-Nov-23 18:51 UTC.
Position N 40°03' W 073°33'.

Length 26 m.

Type: Fishing. MMSI: 367313170.

Date/timePositionNaut miles runAvg speedWind from/ knotsBaromVisibWave heightAir tempDewpointWater temp
2014-Nov-16 20:22N 40°03' W 073°33'24 5.7
2014-Nov-16 16:06N 40°00' W 073°02'4 2.5
2014-Nov-16 14:32N 40°00' W 073°07'3 3.2
2014-Nov-16 13:33N 40°00' W 073°03'0 0.0
2014-Nov-16 12:16N 40°00' W 073°03'2 3.3
2014-Nov-16 11:33N 39°60' W 072°60'  
2014-Nov-12 11:31N 40°06' W 074°02'4 4.4
2014-Nov-12 10:33N 40°06' W 073°57'19 1.1
2014-Nov-11 16:33N 40°10' W 073°32'8 7.9
2014-Nov-11 15:33N 40°09' W 073°42'8 8.0
2014-Nov-11 14:33N 40°07' W 073°52'8 7.5
2014-Nov-11 13:32N 40°06' W 074°02'0 0.0
2014-Nov-11 09:04N 40°06' W 074°02'0 0.0
2014-Nov-11 08:31N 40°06' W 074°02'5 5.2
2014-Nov-11 07:33N 40°07' W 073°56'8 8.1
2014-Nov-11 06:33N 40°08' W 073°45'8 8.3
2014-Nov-11 05:33N 40°09' W 073°35'8 8.2
2014-Nov-11 04:33N 40°11' W 073°24'11 0.8
2014-Nov-10 15:33N 40°09' W 073°38'8 8.0
2014-Nov-10 14:33N 40°08' W 073°49'9 8.1
2014-Nov-10 13:29N 40°06' W 073°60'2 0.1
2014-Nov-09 13:28N 40°06' W 074°02'0 0.0
2014-Nov-09 12:31N 40°06' W 074°02'0 0.0
2014-Nov-09 11:22N 40°06' W 074°02'0 0.0
2014-Nov-09 10:25N 40°06' W 074°02'0 0.0
2014-Nov-09 09:28N 40°06' W 074°02'1 0.7
2014-Nov-09 08:33N 40°06' W 074°01'7 7.0
2014-Nov-09 07:31N 40°05' W 073°52'7 7.0
2014-Nov-09 06:33N 40°05' W 073°43'7 7.0
2014-Nov-09 05:33N 40°04' W 073°34'5 5.1
2014-Nov-09 04:33N 40°03' W 073°27'3 2.5
2014-Nov-09 03:22N 40°02' W 073°24'3 2.8
2014-Nov-09 02:25N 40°00' W 073°21'3 2.5
2014-Nov-09 01:21N 39°58' W 073°20'3 2.8
2014-Nov-09 00:26N 39°57' W 073°17'1 1.0
2014-Nov-08 23:15N 39°56' W 073°15'5 2.8
2014-Nov-08 21:27N 39°59' W 073°21'1 1.3
2014-Nov-08 20:30N 40°00' W 073°22'3 2.8
2014-Nov-08 19:26N 39°58' W 073°19'3 2.9
2014-Nov-08 18:33N 39°57' W 073°16'1 0.5
2014-Nov-08 17:29N 39°57' W 073°17'3 2.8
2014-Nov-08 16:29N 39°58' W 073°20'3 2.9
2014-Nov-08 15:31N 40°01' W 073°22'  

Dump ship's entire track history